createdAt,value
2023-04-22T00:00:37.155Z,81.67
2023-04-22T00:03:18.728Z,82.04
2023-04-22T00:05:47.258Z,81.99
2023-04-22T00:08:15.122Z,82.51
2023-04-22T00:10:43.103Z,82.44
2023-04-22T00:13:10.894Z,82.44
2023-04-22T00:15:39.081Z,82.14
2023-04-22T00:18:07.428Z,82.19
2023-04-22T00:20:36.467Z,82.42
2023-04-22T00:23:04.088Z,83.28
2023-04-22T00:25:32.163Z,83.10
2023-04-22T00:27:59.844Z,83.32
2023-04-22T00:30:27.815Z,83.75
2023-04-22T00:32:56.146Z,83.53
2023-04-22T00:35:24.295Z,83.56
2023-04-22T00:37:52.024Z,83.93
2023-04-22T00:40:20.269Z,83.88
2023-04-22T00:42:50.846Z,83.85
2023-04-22T00:45:20.903Z,84.37
2023-04-22T00:47:49.253Z,84.30
2023-04-22T00:50:17.544Z,84.89
2023-04-22T00:52:45.299Z,84.57
2023-04-22T00:55:13.390Z,84.98
2023-04-22T00:57:42.523Z,85.14
2023-04-22T01:00:11.700Z,84.81
2023-04-22T01:02:39.968Z,85.23
2023-04-22T01:05:11.726Z,85.54
2023-04-22T01:07:39.426Z,86.02
2023-04-22T01:10:08.130Z,86.08
2023-04-22T01:12:35.930Z,86.58
2023-04-22T01:15:05.181Z,86.61
2023-04-22T01:17:33.892Z,86.53
2023-04-22T01:20:04.135Z,86.17
2023-04-22T01:22:36.767Z,86.64
2023-04-22T01:25:04.983Z,86.81
2023-04-22T01:27:32.874Z,86.74
2023-04-22T01:30:01.244Z,86.57
2023-04-22T01:32:30.729Z,87.08
2023-04-22T01:34:59.393Z,87.01
2023-04-22T01:37:27.069Z,87.20
2023-04-22T01:39:55.722Z,87.70
2023-04-22T01:42:23.891Z,87.83
2023-04-22T01:44:51.936Z,88.19
2023-04-22T01:47:19.584Z,87.94
2023-04-22T01:49:47.672Z,88.36
2023-04-22T01:52:15.421Z,88.48
2023-04-22T01:54:43.412Z,88.97
2023-04-22T01:57:14.272Z,89.14
2023-04-22T01:59:42.606Z,89.07
2023-04-22T02:02:10.665Z,88.67
2023-04-22T02:04:38.743Z,89.34
2023-04-22T02:07:06.634Z,88.93
2023-04-22T02:09:37.473Z,89.26
2023-04-22T02:12:05.626Z,89.34
2023-04-22T02:14:33.557Z,89.41
2023-04-22T02:17:04.773Z,89.33
2023-04-22T02:19:32.997Z,89.78
2023-04-22T02:22:02.493Z,89.38
2023-04-22T02:24:30.533Z,89.50
2023-04-22T02:27:00.320Z,89.59
2023-04-22T02:29:28.891Z,89.37
2023-04-22T02:32:00.085Z,89.40
2023-04-22T02:34:28.458Z,89.79
2023-04-22T02:36:56.485Z,89.83
2023-04-22T02:39:25.321Z,89.76
2023-04-22T02:41:53.091Z,89.79
2023-04-22T02:44:21.188Z,90.03
2023-04-22T02:46:48.881Z,89.99
2023-04-22T02:49:16.888Z,90.08
2023-04-22T02:51:45.063Z,90.50
2023-04-22T02:54:13.167Z,90.37
2023-04-22T02:56:40.792Z,90.27
2023-04-22T02:59:08.749Z,90.54
2023-04-22T03:01:36.616Z,90.58
2023-04-22T03:04:07.746Z,90.56
2023-04-22T03:06:35.550Z,91.32
2023-04-22T03:09:04.135Z,91.28
2023-04-22T03:11:32.678Z,91.49
2023-04-22T03:14:00.598Z,91.30
2023-04-22T03:16:28.470Z,91.35
2023-04-22T03:18:59.681Z,91.34
2023-04-22T03:21:28.756Z,91.74
2023-04-22T03:23:57.069Z,91.88
2023-04-22T03:26:24.886Z,91.97
2023-04-22T03:28:53.014Z,91.83
2023-04-22T03:31:20.806Z,92.05
2023-04-22T03:33:49.525Z,91.93
2023-04-22T03:36:25.039Z,92.18
2023-04-22T03:38:53.044Z,92.05
2023-04-22T03:41:21.401Z,92.17
2023-04-22T03:43:49.883Z,92.42
2023-04-22T03:46:18.365Z,92.74
2023-04-22T03:48:54.450Z,92.70
2023-04-22T03:51:27.583Z,92.72
2023-04-22T03:53:56.220Z,92.50
2023-04-22T03:56:26.545Z,92.42
2023-04-22T03:58:58.492Z,91.92
2023-04-22T04:01:27.589Z,91.91
2023-04-22T04:03:59.870Z,92.17
2023-04-22T04:06:35.542Z,91.99
2023-04-22T04:09:04.048Z,91.56
2023-04-22T04:11:32.116Z,91.82
2023-04-22T04:14:00.988Z,91.18
2023-04-22T04:16:33.859Z,90.26
2023-04-22T04:19:09.898Z,89.67
2023-04-22T04:21:39.741Z,89.29
2023-04-22T04:24:08.509Z,88.53
2023-04-22T04:26:42.403Z,87.90
2023-04-22T04:29:15.922Z,87.00
2023-04-22T04:31:49.933Z,84.87
2023-04-22T04:34:19.217Z,83.42
2023-04-22T04:36:47.704Z,81.82
2023-04-22T04:39:22.549Z,76.54
2023-04-22T04:41:55.158Z,74.50
2023-04-22T04:44:23.907Z,72.90
2023-04-22T04:46:54.947Z,67.31
2023-04-22T04:49:23.760Z,64.86
2023-04-22T04:51:57.799Z,61.21
2023-04-22T04:54:27.464Z,56.89
2023-04-22T04:56:57.403Z,52.35
2023-04-22T04:59:26.210Z,47.74
2023-04-22T05:01:54.478Z,45.08
2023-04-22T05:04:22.908Z,43.90
2023-04-22T05:06:50.756Z,43.51
2023-04-22T05:09:19.128Z,44.39
2023-04-22T05:11:49.370Z,44.95
2023-04-22T05:14:20.453Z,43.60
2023-04-22T05:16:48.963Z,42.91
2023-04-22T05:19:16.970Z,41.41
2023-04-22T05:21:45.651Z,41.11
2023-04-22T05:24:13.628Z,39.95
2023-04-22T05:26:41.724Z,38.42
2023-04-22T05:29:15.912Z,40.24
2023-04-22T05:31:43.753Z,40.98
2023-04-22T05:34:12.551Z,39.17
2023-04-22T05:36:40.732Z,37.61
2023-04-22T05:39:09.322Z,35.40
2023-04-22T05:41:37.165Z,35.21
2023-04-22T05:44:09.279Z,36.63
2023-04-22T05:46:37.211Z,37.31
2023-04-22T05:49:05.375Z,38.13
2023-04-22T05:51:51.751Z,39.43
2023-04-22T05:54:23.139Z,38.19
2023-04-22T05:56:50.822Z,38.92
2023-04-22T05:59:19.710Z,39.41
2023-04-22T06:01:50.054Z,38.68
2023-04-22T06:04:21.096Z,37.01
2023-04-22T06:06:49.955Z,36.11
2023-04-22T06:09:18.046Z,36.60
2023-04-22T06:11:45.767Z,36.32
2023-04-22T06:14:16.184Z,36.59
2023-04-22T06:16:45.622Z,36.89
2023-04-22T06:19:13.843Z,36.83
2023-04-22T06:21:42.652Z,36.47
2023-04-22T06:24:10.958Z,37.02
2023-04-22T06:26:38.829Z,37.18
2023-04-22T06:29:07.201Z,37.15
2023-04-22T06:31:37.329Z,36.75
2023-04-22T06:34:06.021Z,35.69
2023-04-22T06:36:37.575Z,35.53
2023-04-22T06:39:07.480Z,34.50
2023-04-22T06:41:42.161Z,32.85
2023-04-22T06:44:29.708Z,30.52
2023-04-22T06:47:15.899Z,30.49
2023-04-22T06:49:55.026Z,31.20
2023-04-22T06:52:29.959Z,30.53
2023-04-22T06:54:59.915Z,29.78
2023-04-22T06:57:27.749Z,28.36
2023-04-22T06:59:55.817Z,27.26
2023-04-22T07:02:26.261Z,26.65
2023-04-22T07:04:54.682Z,25.93
2023-04-22T07:07:22.489Z,25.44
2023-04-22T07:09:50.619Z,26.13
2023-04-22T07:12:18.417Z,27.40
2023-04-22T07:14:46.747Z,27.04
2023-04-22T07:17:14.442Z,26.63
2023-04-22T07:19:42.514Z,26.87
2023-04-22T07:22:10.766Z,26.51
2023-04-22T07:24:39.923Z,24.59
2023-04-22T07:27:07.810Z,23.31
2023-04-22T07:29:35.805Z,22.67
2023-04-22T07:32:03.514Z,21.93
2023-04-22T07:34:31.411Z,20.46
2023-04-22T07:36:59.326Z,18.82
2023-04-22T07:39:27.670Z,18.03
2023-04-22T07:41:57.573Z,17.06
2023-04-22T07:44:25.744Z,16.16
2023-04-22T07:46:54.102Z,15.82
2023-04-22T07:49:22.086Z,14.75
2023-04-22T07:51:49.722Z,14.10
2023-04-22T07:54:17.663Z,14.32
2023-04-22T07:56:45.363Z,13.88
2023-04-22T07:59:13.250Z,13.92
2023-04-22T08:01:41.017Z,14.00
2023-04-22T08:04:09.251Z,13.65
2023-04-22T08:06:37.173Z,13.02
2023-04-22T08:09:05.315Z,12.99
2023-04-22T08:11:33.036Z,12.92
2023-04-22T08:14:01.010Z,13.02
2023-04-22T08:16:28.779Z,13.42
2023-04-22T08:18:57.889Z,13.34
2023-04-22T08:21:26.611Z,13.52
2023-04-22T08:23:55.013Z,13.37
2023-04-22T08:26:22.801Z,12.73
2023-04-22T08:28:50.819Z,13.20
2023-04-22T08:31:18.686Z,13.39
2023-04-22T08:33:46.851Z,13.46
2023-04-22T08:36:14.588Z,13.01
2023-04-22T08:38:42.891Z,12.47
2023-04-22T08:41:10.841Z,12.57
2023-04-22T08:43:38.909Z,12.64
2023-04-22T08:46:06.777Z,12.46
2023-04-22T08:48:34.805Z,12.26
2023-04-22T08:51:02.765Z,12.78
2023-04-22T08:53:31.736Z,12.83
2023-04-22T08:56:00.095Z,12.67
2023-04-22T08:58:29.205Z,12.68
2023-04-22T09:00:57.623Z,12.69
2023-04-22T09:03:26.289Z,12.62
2023-04-22T09:05:55.196Z,12.75
2023-04-22T09:08:23.538Z,13.06
2023-04-22T09:10:51.441Z,13.39
2023-04-22T09:13:21.995Z,13.67
2023-04-22T09:15:49.689Z,14.00
2023-04-22T09:18:21.755Z,13.74
2023-04-22T09:20:54.480Z,14.51
2023-04-22T09:23:22.736Z,14.78
2023-04-22T09:25:51.020Z,15.01
2023-04-22T09:28:20.174Z,14.85
2023-04-22T09:30:48.052Z,14.51
2023-04-22T09:33:17.408Z,14.59
2023-04-22T09:35:45.366Z,14.64
2023-04-22T09:38:13.779Z,14.28
2023-04-22T09:40:44.935Z,14.20
2023-04-22T09:43:17.855Z,13.79
2023-04-22T09:45:46.248Z,13.93
2023-04-22T09:48:17.758Z,14.54
2023-04-22T09:50:48.007Z,14.91
2023-04-22T09:53:18.982Z,15.31
2023-04-22T09:55:54.811Z,15.08
2023-04-22T09:58:24.052Z,15.15
2023-04-22T10:00:56.084Z,15.86
2023-04-22T10:03:24.058Z,16.20
2023-04-22T10:05:51.755Z,17.07
2023-04-22T10:08:19.723Z,17.27
2023-04-22T10:10:47.648Z,16.73
2023-04-22T10:13:15.826Z,16.87
2023-04-22T10:15:53.027Z,16.32
2023-04-22T10:18:27.127Z,17.09
2023-04-22T10:20:56.629Z,18.31
2023-04-22T10:23:25.942Z,19.40
2023-04-22T10:25:57.536Z,20.77
2023-04-22T10:28:29.585Z,20.97
2023-04-22T10:30:57.397Z,21.35
2023-04-22T10:33:27.707Z,21.39
2023-04-22T10:36:14.199Z,22.44
2023-04-22T10:38:53.904Z,23.24
2023-04-22T10:41:32.338Z,22.99
2023-04-22T10:44:07.968Z,22.96
2023-04-22T10:46:37.761Z,24.28
2023-04-22T10:49:11.321Z,25.27
2023-04-22T10:51:46.051Z,24.56
2023-04-22T10:54:31.954Z,24.79
2023-04-22T10:57:08.720Z,25.35
2023-04-22T10:59:43.020Z,25.57
2023-04-22T11:02:12.104Z,25.88
2023-04-22T11:04:40.329Z,25.21
2023-04-22T11:07:26.391Z,25.86
2023-04-22T11:10:07.008Z,24.66
2023-04-22T11:12:42.114Z,24.92
2023-04-22T11:15:13.246Z,24.82
2023-04-22T11:17:43.661Z,25.51
2023-04-22T11:20:18.669Z,25.18
2023-04-22T11:22:54.936Z,25.02
2023-04-22T11:25:24.666Z,24.90
2023-04-22T11:27:55.129Z,24.53
2023-04-22T11:30:24.841Z,24.75
2023-04-22T11:32:55.382Z,25.01
2023-04-22T11:35:33.175Z,25.52
2023-04-22T11:38:02.793Z,26.04
2023-04-22T11:40:35.854Z,26.46
2023-04-22T11:43:08.391Z,26.71
2023-04-22T11:45:38.165Z,26.86
2023-04-22T11:48:09.490Z,26.24
2023-04-22T11:50:39.676Z,26.55
2023-04-22T11:53:16.645Z,27.38
2023-04-22T11:55:47.575Z,26.89
2023-04-22T11:58:33.175Z,27.26
2023-04-22T12:01:01.214Z,26.61
2023-04-22T12:03:31.234Z,26.37
2023-04-22T12:06:04.807Z,25.85
2023-04-22T12:08:36.717Z,25.45
2023-04-22T12:11:07.559Z,25.56
2023-04-22T12:13:43.461Z,25.39
2023-04-22T12:16:13.473Z,25.15
2023-04-22T12:18:48.653Z,25.33
2023-04-22T12:21:20.317Z,24.83
2023-04-22T12:23:59.244Z,24.35
2023-04-22T12:26:28.264Z,23.90
2023-04-22T12:28:58.246Z,24.34
2023-04-22T12:31:26.919Z,24.38
2023-04-22T12:33:55.091Z,25.07
2023-04-22T12:36:23.723Z,24.67
2023-04-22T12:38:51.797Z,24.68
2023-04-22T12:41:19.509Z,24.98
2023-04-22T12:43:47.747Z,25.38
2023-04-22T12:46:15.732Z,25.75
2023-04-22T12:48:43.719Z,25.89
2023-04-22T12:51:11.379Z,26.06
2023-04-22T12:53:39.378Z,25.66
2023-04-22T12:56:06.995Z,25.86
2023-04-22T12:58:34.922Z,25.94
2023-04-22T13:01:02.520Z,25.88
2023-04-22T13:03:30.470Z,25.88
2023-04-22T13:05:58.506Z,26.20
2023-04-22T13:08:26.730Z,26.47
2023-04-22T13:10:54.437Z,27.04
2023-04-22T13:13:22.348Z,27.19
2023-04-22T13:15:54.366Z,26.72
2023-04-22T13:18:23.593Z,26.54
2023-04-22T13:20:51.569Z,26.93
2023-04-22T13:23:21.752Z,26.79
2023-04-22T13:25:54.664Z,27.26
2023-04-22T13:28:22.665Z,27.01
2023-04-22T13:30:50.441Z,27.05
2023-04-22T13:33:18.595Z,26.99
2023-04-22T13:35:46.301Z,27.01
2023-04-22T13:38:14.329Z,27.11
2023-04-22T13:40:41.997Z,27.07
2023-04-22T13:43:10.357Z,27.17
2023-04-22T13:45:38.140Z,27.48
2023-04-22T13:48:06.433Z,27.17
2023-04-22T13:50:34.395Z,27.63
2023-04-22T13:53:03.988Z,27.53
2023-04-22T13:55:33.273Z,27.47
2023-04-22T13:58:01.355Z,27.62
2023-04-22T14:00:29.220Z,27.79
2023-04-22T14:02:57.570Z,27.31
2023-04-22T14:05:25.597Z,27.10
2023-04-22T14:07:54.207Z,27.23
2023-04-22T14:10:22.203Z,26.82
2023-04-22T14:12:50.333Z,26.65
2023-04-22T14:15:18.114Z,26.53
2023-04-22T14:17:49.415Z,26.66
2023-04-22T14:20:17.465Z,27.29
2023-04-22T14:22:46.308Z,28.04
2023-04-22T14:25:14.152Z,28.08
2023-04-22T14:27:42.714Z,28.05
2023-04-22T14:30:11.137Z,27.54
2023-04-22T14:32:39.103Z,27.24
2023-04-22T14:35:07.214Z,27.80
2023-04-22T14:37:36.065Z,28.13
2023-04-22T14:40:04.322Z,28.29
2023-04-22T14:42:32.276Z,28.47
2023-04-22T14:45:00.136Z,28.06
2023-04-22T14:47:28.188Z,28.28
2023-04-22T14:49:56.366Z,28.44
2023-04-22T14:52:24.419Z,28.44
2023-04-22T14:54:52.378Z,29.07
2023-04-22T14:57:20.556Z,28.72
2023-04-22T14:59:48.201Z,28.80
2023-04-22T15:02:16.423Z,29.18
2023-04-22T15:04:44.808Z,29.01
2023-04-22T15:07:12.819Z,29.42
2023-04-22T15:09:40.771Z,29.49
2023-04-22T15:12:09.290Z,29.43
2023-04-22T15:14:37.438Z,29.95
2023-04-22T15:17:06.186Z,30.38
2023-04-22T15:19:34.017Z,30.53
2023-04-22T15:22:02.295Z,30.49
2023-04-22T15:24:31.249Z,31.54
2023-04-22T15:27:00.734Z,32.37
2023-04-22T15:29:28.627Z,32.49
2023-04-22T15:31:57.184Z,33.15
2023-04-22T15:34:25.639Z,32.58
2023-04-22T15:36:53.911Z,32.77
2023-04-22T15:39:23.444Z,33.35
2023-04-22T15:41:51.410Z,33.66
2023-04-22T15:44:19.787Z,33.35
2023-04-22T15:46:47.925Z,32.76
2023-04-22T15:49:15.674Z,32.74
2023-04-22T15:51:43.804Z,32.94
2023-04-22T15:54:12.178Z,33.07
2023-04-22T15:56:40.632Z,33.54
2023-04-22T15:59:08.349Z,33.41
2023-04-22T16:01:37.645Z,33.71
2023-04-22T16:04:07.029Z,33.65
2023-04-22T16:06:35.742Z,33.25
2023-04-22T16:09:03.833Z,32.89
2023-04-22T16:11:32.042Z,32.46
2023-04-22T16:13:59.728Z,31.53
2023-04-22T16:16:28.015Z,31.80
2023-04-22T16:18:55.825Z,32.48
2023-04-22T16:21:23.864Z,32.14
2023-04-22T16:23:51.620Z,31.29
2023-04-22T16:26:19.820Z,30.50
2023-04-22T16:28:47.557Z,30.97
2023-04-22T16:31:18.027Z,30.83
2023-04-22T16:33:46.288Z,31.16
2023-04-22T16:36:14.288Z,31.46
2023-04-22T16:38:41.970Z,31.28
2023-04-22T16:41:11.686Z,31.19
2023-04-22T16:43:41.064Z,31.16
2023-04-22T16:46:09.434Z,30.63
2023-04-22T16:48:37.108Z,31.01
2023-04-22T16:51:05.430Z,30.75
2023-04-22T16:53:33.101Z,30.75
2023-04-22T16:56:01.138Z,30.88
2023-04-22T16:58:28.808Z,31.12
2023-04-22T17:00:56.730Z,31.18
2023-04-22T17:03:25.386Z,31.22
2023-04-22T17:05:53.628Z,31.32
2023-04-22T17:08:21.418Z,31.62
2023-04-22T17:10:49.329Z,31.77
2023-04-22T17:13:17.357Z,32.05
2023-04-22T17:15:45.261Z,32.48
2023-04-22T17:18:14.323Z,32.89
2023-04-22T17:20:42.485Z,33.19
2023-04-22T17:23:10.324Z,33.38
2023-04-22T17:25:38.299Z,33.56
2023-04-22T17:28:05.960Z,34.00
2023-04-22T17:30:33.913Z,34.30
2023-04-22T17:33:01.626Z,34.91
2023-04-22T17:35:29.639Z,35.36
2023-04-22T17:37:57.974Z,35.78
2023-04-22T17:40:26.361Z,36.31
2023-04-22T17:42:54.009Z,36.49
2023-04-22T17:45:22.107Z,36.81
2023-04-22T17:47:49.776Z,37.61
2023-04-22T17:50:17.874Z,38.09
2023-04-22T17:52:45.499Z,38.93
2023-04-22T17:55:13.477Z,39.26
2023-04-22T17:57:42.272Z,39.81
2023-04-22T18:00:10.982Z,40.40
2023-04-22T18:02:41.137Z,41.23
2023-04-22T18:05:09.675Z,42.20
2023-04-22T18:07:37.307Z,42.75
2023-04-22T18:10:05.689Z,43.34
2023-04-22T18:12:33.477Z,45.08
2023-04-22T18:15:01.469Z,45.19
2023-04-22T18:17:29.180Z,45.23
2023-04-22T18:20:09.553Z,45.68
2023-04-22T18:22:42.332Z,47.25
2023-04-22T18:25:10.682Z,48.57
2023-04-22T18:27:38.366Z,49.17
2023-04-22T18:30:06.941Z,49.05
2023-04-22T18:32:35.864Z,49.38
2023-04-22T18:35:04.717Z,49.57
2023-04-22T18:37:34.755Z,50.15
2023-04-22T18:40:05.643Z,51.16
2023-04-22T18:42:33.314Z,51.62
2023-04-22T18:45:04.229Z,51.92
2023-04-22T18:47:32.585Z,52.77
2023-04-22T18:50:00.727Z,53.13
2023-04-22T18:52:28.405Z,52.95
2023-04-22T18:54:56.428Z,53.52
2023-04-22T18:57:24.138Z,53.96
2023-04-22T18:59:52.199Z,54.29
2023-04-22T19:02:20.010Z,54.71
2023-04-22T19:04:48.394Z,54.98
2023-04-22T19:07:16.190Z,54.96
2023-04-22T19:09:44.182Z,55.21
2023-04-22T19:12:14.858Z,55.49
2023-04-22T19:14:43.349Z,55.94
2023-04-22T19:17:11.371Z,56.15
2023-04-22T19:19:40.257Z,56.30
2023-04-22T19:22:08.334Z,56.81
2023-04-22T19:24:36.549Z,57.48
2023-04-22T19:27:07.038Z,57.94
2023-04-22T19:29:35.051Z,58.72
2023-04-22T19:32:03.888Z,59.57
2023-04-22T19:34:32.729Z,60.01
2023-04-22T19:37:02.906Z,60.73
2023-04-22T19:39:31.730Z,61.00
2023-04-22T19:42:03.293Z,61.60
2023-04-22T19:44:31.670Z,62.11
2023-04-22T19:46:59.464Z,62.31
2023-04-22T19:49:27.799Z,62.19
2023-04-22T19:51:56.873Z,62.53
2023-04-22T19:54:29.379Z,63.51
2023-04-22T19:56:58.542Z,64.37
2023-04-22T19:59:31.118Z,64.52
2023-04-22T20:01:59.347Z,65.02
2023-04-22T20:04:28.115Z,65.99
2023-04-22T20:06:57.248Z,66.14
2023-04-22T20:09:26.606Z,66.91
2023-04-22T20:11:55.035Z,67.31
2023-04-22T20:14:24.105Z,67.88
2023-04-22T20:16:52.249Z,68.24
2023-04-22T20:19:20.398Z,68.37
2023-04-22T20:21:49.353Z,68.68
2023-04-22T20:24:20.426Z,68.86
2023-04-22T20:26:49.562Z,69.31
2023-04-22T20:29:18.685Z,70.33
2023-04-22T20:31:46.783Z,70.86
2023-04-22T20:34:14.837Z,71.32
2023-04-22T20:36:43.598Z,71.99
2023-04-22T20:39:14.570Z,72.09
2023-04-22T20:41:42.621Z,72.72
2023-04-22T20:44:10.684Z,72.86
2023-04-22T20:46:38.926Z,73.09
2023-04-22T20:49:07.124Z,72.85
2023-04-22T20:51:35.177Z,73.09
2023-04-22T20:54:03.842Z,73.58
2023-04-22T20:56:32.586Z,73.92
2023-04-22T20:59:00.493Z,74.67
2023-04-22T21:01:29.866Z,74.90
2023-04-22T21:03:58.478Z,75.33
2023-04-22T21:06:28.100Z,75.43
2023-04-22T21:08:56.648Z,75.26
2023-04-22T21:11:24.533Z,74.79
2023-04-22T21:13:54.194Z,74.50
2023-04-22T21:16:27.239Z,74.53
2023-04-22T21:18:58.677Z,75.08
2023-04-22T21:21:34.506Z,75.49
2023-04-22T21:24:03.428Z,75.99
2023-04-22T21:26:31.643Z,76.77
2023-04-22T21:29:00.064Z,77.08
2023-04-22T21:31:28.035Z,77.50
2023-04-22T21:33:56.043Z,77.93
2023-04-22T21:36:25.069Z,78.21
2023-04-22T21:38:53.047Z,78.67
2023-04-22T21:41:20.911Z,79.21
2023-04-22T21:43:48.875Z,79.43
2023-04-22T21:46:16.584Z,79.86
2023-04-22T21:48:44.373Z,80.13
2023-04-22T21:51:12.003Z,80.38
2023-04-22T21:53:39.830Z,80.91
2023-04-22T21:56:07.491Z,80.99
2023-04-22T21:58:35.452Z,81.06
2023-04-22T22:01:03.130Z,81.25
2023-04-22T22:03:31.633Z,81.55
2023-04-22T22:05:59.402Z,81.74
2023-04-22T22:08:27.627Z,81.97
2023-04-22T22:10:55.550Z,82.19
2023-04-22T22:13:23.494Z,82.64
2023-04-22T22:15:51.527Z,82.95
2023-04-22T22:18:20.401Z,83.38
2023-04-22T22:20:48.445Z,83.71
2023-04-22T22:23:16.312Z,83.88
2023-04-22T22:25:44.013Z,84.27
2023-04-22T22:28:11.756Z,84.66
2023-04-22T22:30:39.315Z,84.84
2023-04-22T22:33:07.217Z,85.07
2023-04-22T22:35:34.877Z,85.13
2023-04-22T22:38:02.732Z,85.15
2023-04-22T22:40:30.650Z,84.91
2023-04-22T22:42:59.112Z,84.86
2023-04-22T22:45:26.914Z,85.08
2023-04-22T22:47:55.265Z,85.09
2023-04-22T22:50:24.677Z,85.30
2023-04-22T22:52:52.765Z,85.48
2023-04-22T22:55:20.496Z,85.56
2023-04-22T22:57:48.407Z,86.18
2023-04-22T23:00:17.346Z,86.48
2023-04-22T23:02:45.802Z,86.50
2023-04-22T23:05:13.572Z,86.79
2023-04-22T23:07:41.584Z,86.86
2023-04-22T23:10:09.809Z,87.04
2023-04-22T23:12:37.719Z,87.19
2023-04-22T23:15:06.272Z,86.99
2023-04-22T23:17:36.288Z,87.34
2023-04-22T23:20:04.836Z,87.29
2023-04-22T23:22:33.811Z,87.00
2023-04-22T23:25:01.778Z,86.63
2023-04-22T23:27:30.909Z,86.70
2023-04-22T23:29:58.845Z,86.89
2023-04-22T23:32:27.880Z,86.82
2023-04-22T23:34:57.252Z,87.05
2023-04-22T23:37:28.501Z,87.35
2023-04-22T23:39:56.253Z,87.44
2023-04-22T23:42:24.208Z,87.53
2023-04-22T23:44:51.880Z,87.62
2023-04-22T23:47:19.898Z,64.87
2023-04-22T23:49:48.490Z,87.60
2023-04-22T23:52:17.011Z,88.00
2023-04-22T23:54:45.103Z,88.38
2023-04-22T23:57:13.353Z,88.69
2023-04-22T23:59:41.186Z,88.32
